Time;durP1;ratioP1;P1;durP2;ratioP2;P2;SDS_P1;SDS_P2;PMS_P1;PMS_P2;Temp;Humidity;BMP_temperature;BMP_pressure;BME280_temperature;BME280_humidity;BME280_pressure;Samples;Min_cycle;Max_cycle;Signal;HPM_P1;HPM_P2
2021/05/30 00:02:25;;;;;;;4.37;2.43;;;;;;;8.35;98.46;96994.78;5050214;28;20229;-73
2021/05/30 00:04:51;;;;;;;5.33;2.40;;;;;;;8.32;97.65;96988.97;5049936;28;20694;-73
2021/05/30 00:07:18;;;;;;;5.60;2.53;;;;;;;8.21;98.94;96992.63;5049981;28;20204;-73
2021/05/30 00:09:46;;;;;;;3.20;2.50;;;;;;;8.22;98.91;96988.19;5050173;28;20309;-73
2021/05/30 00:12:13;;;;;;;2.70;2.30;;;;;;;8.21;99.53;96983.91;5049885;28;20232;-73
2021/05/30 00:14:39;;;;;;;3.60;2.80;;;;;;;8.20;100.00;96990.16;5049978;28;20213;-73
2021/05/30 00:17:05;;;;;;;3.37;2.40;;;;;;;8.15;100.00;96981.88;5050064;28;20231;-73
2021/05/30 00:19:32;;;;;;;6.57;3.00;;;;;;;8.15;100.00;96981.88;5050152;28;20254;-73
2021/05/30 00:21:57;;;;;;;8.47;2.37;;;;;;;8.15;100.00;96985.31;5049822;28;20218;-73
2021/05/30 00:24:24;;;;;;;5.83;2.80;;;;;;;8.15;100.00;96981.88;5049897;28;20241;-73
2021/05/30 00:26:49;;;;;;;4.10;2.70;;;;;;;8.02;100.00;96986.59;5049517;28;20572;-73
2021/05/30 00:29:16;;;;;;;2.77;2.20;;;;;;;8.04;99.53;96984.63;5049943;28;20205;-73
2021/05/30 00:31:42;;;;;;;3.83;2.30;;;;;;;8.02;98.23;96982.16;5049761;28;20251;-73
2021/05/30 00:34:08;;;;;;;5.83;2.40;;;;;;;7.92;98.86;96983.97;5049867;28;20859;-73
2021/05/30 00:36:34;;;;;;;3.07;2.37;;;;;;;7.92;99.63;96981.38;5049428;28;20229;-73
2021/05/30 00:39:00;;;;;;;4.40;2.47;;;;;;;7.89;100.00;96976.41;5049551;28;20300;-73
2021/05/30 00:41:26;;;;;;;4.00;2.33;;;;;;;7.89;100.00;96972.94;5049458;28;20204;-73
2021/05/30 00:43:55;;;;;;;4.30;2.50;;;;;;;7.90;100.00;96975.44;5049449;28;20283;-73
2021/05/30 00:46:23;;;;;;;6.13;2.90;;;;;;;7.72;100.00;96972.88;5049363;28;20205;-73
2021/05/30 00:48:50;;;;;;;5.10;2.70;;;;;;;7.66;100.00;96979.53;5049297;28;20197;-73
2021/05/30 00:51:17;;;;;;;6.23;2.60;;;;;;;7.61;100.00;96986.97;5049428;28;20221;-73
2021/05/30 00:53:44;;;;;;;4.57;2.60;;;;;;;7.61;100.00;96981.72;5049225;28;20225;-73
2021/05/30 00:56:13;;;;;;;6.00;2.93;;;;;;;7.74;100.00;96981.41;5049163;28;20221;-73
2021/05/30 00:58:39;;;;;;;8.47;3.07;;;;;;;7.77;100.00;96987.22;5049335;28;20197;-73
2021/05/30 01:01:06;;;;;;;4.07;2.93;;;;;;;7.66;100.00;96986.53;5049300;28;20307;-73
2021/05/30 01:03:35;;;;;;;4.63;2.90;;;;;;;7.67;100.00;96990.81;5048732;28;20268;-73
2021/05/30 01:06:01;;;;;;;3.20;2.43;;;;;;;7.48;100.00;96994.28;5048518;28;20193;-73
2021/05/30 01:08:27;;;;;;;3.93;2.60;;;;;;;7.52;100.00;96986.97;5049026;28;20867;-73
2021/05/30 01:10:55;;;;;;;4.77;2.63;;;;;;;7.55;100.00;96991.97;5049169;28;20205;-73
2021/05/30 01:13:22;;;;;;;4.27;2.30;;;;;;;7.52;100.00;97000.94;5048953;28;20228;-73
2021/05/30 01:15:49;;;;;;;3.83;2.60;;;;;;;7.23;100.00;96999.31;5048475;28;20235;-73
2021/05/30 01:18:15;;;;;;;3.30;2.63;;;;;;;7.22;100.00;96999.41;5048982;28;20223;-73
2021/05/30 01:20:42;;;;;;;5.93;2.67;;;;;;;7.25;100.00;97010.47;5048706;28;20201;-73
2021/05/30 01:23:12;;;;;;;4.27;2.67;;;;;;;7.26;100.00;97015.56;5048928;28;20232;-73
2021/05/30 01:25:38;;;;;;;3.93;2.70;;;;;;;7.30;100.00;97011.69;5048606;28;20201;-73
2021/05/30 01:28:05;;;;;;;4.17;2.83;;;;;;;7.03;100.00;97012.53;5048674;28;20292;-72
2021/05/30 01:30:32;;;;;;;4.87;2.30;;;;;;;7.03;100.00;97007.28;5048835;28;20208;-73
2021/05/30 01:32:58;;;;;;;4.00;3.03;;;;;;;6.90;100.00;97004.94;5048557;28;20231;-73
2021/05/30 01:35:24;;;;;;;4.00;2.70;;;;;;;7.09;100.00;97011.97;5048241;28;20224;-73
2021/05/30 01:37:51;;;;;;;3.37;2.40;;;;;;;7.16;100.00;97011.28;5048799;28;20220;-73
2021/05/30 01:40:18;;;;;;;5.13;2.90;;;;;;;7.09;100.00;97009.34;5048586;28;20240;-72
2021/05/30 01:42:45;;;;;;;3.43;2.40;;;;;;;7.18;100.00;97009.38;5048404;28;20231;-73
2021/05/30 01:45:12;;;;;;;4.70;3.20;;;;;;;7.01;100.00;97011.84;5048244;28;20204;-72
2021/05/30 01:47:39;;;;;;;4.53;2.97;;;;;;;7.07;100.00;97008.69;5048646;28;20205;-72
2021/05/30 01:50:08;;;;;;;4.40;2.83;;;;;;;7.05;100.00;97013.22;5048123;28;20212;-73
2021/05/30 01:52:35;;;;;;;3.83;2.60;;;;;;;7.11;100.00;97012.66;5048525;28;20235;-73
2021/05/30 01:55:01;;;;;;;3.60;2.70;;;;;;;6.97;100.00;97013.06;5048395;28;20211;-72
2021/05/30 01:57:29;;;;;;;5.13;2.90;;;;;;;6.84;100.00;97008.09;5048391;28;20205;-72
2021/05/30 01:59:55;;;;;;;4.73;2.63;;;;;;;6.87;100.00;97009.59;5048151;28;20258;-72
2021/05/30 02:02:24;;;;;;;4.93;2.63;;;;;;;6.95;100.00;97002.72;5048003;28;20225;-73
2021/05/30 02:04:53;;;;;;;5.37;2.50;;;;;;;6.85;100.00;97008.94;5048355;28;20625;-72
2021/05/30 02:07:20;;;;;;;3.00;2.57;;;;;;;6.91;100.00;97005.75;5048231;28;20258;-72
2021/05/30 02:09:46;;;;;;;4.17;2.97;;;;;;;6.94;100.00;97005.50;5048132;28;20201;-72
2021/05/30 02:12:12;;;;;;;4.20;2.80;;;;;;;6.98;100.00;97006.88;5048230;28;20223;-73
2021/05/30 02:14:39;;;;;;;4.53;3.00;;;;;;;6.80;100.00;97003.28;5048234;28;20215;-72
2021/05/30 02:17:05;;;;;;;3.97;2.87;;;;;;;6.93;100.00;97003.84;5052085;28;20228;-72
2021/05/30 02:19:31;;;;;;;4.77;3.07;;;;;;;6.81;100.00;97005.75;5052164;28;20574;-72
2021/05/30 02:21:59;;;;;;;3.30;2.80;;;;;;;6.88;100.00;97013.88;5052194;28;20271;-71
2021/05/30 02:24:25;;;;;;;4.27;3.03;;;;;;;6.81;100.00;97018.00;5052205;28;20204;-72
2021/05/30 02:26:51;;;;;;;5.23;3.00;;;;;;;6.83;100.00;97018.69;5051688;28;20742;-72
2021/05/30 02:29:28;;;;;;;4.70;3.20;;;;;;;6.75;100.00;97015.94;5052288;28;20219;-72
2021/05/30 02:31:55;;;;;;;4.87;3.00;;;;;;;6.75;100.00;97022.00;5052166;28;20231;-72
2021/05/30 02:34:21;;;;;;;4.90;3.17;;;;;;;6.65;100.00;97022.94;5051868;28;20205;-72
2021/05/30 02:36:47;;;;;;;7.83;3.87;;;;;;;6.69;100.00;97026.94;5051630;28;20702;-72
2021/05/30 02:39:13;;;;;;;4.10;3.20;;;;;;;6.72;100.00;97021.44;5051756;28;20300;-72
2021/05/30 02:41:39;;;;;;;5.83;3.40;;;;;;;6.78;100.00;97021.75;5051950;28;20706;-73
2021/05/30 02:44:06;;;;;;;7.33;4.00;;;;;;;6.84;100.00;97020.38;5051801;28;20284;-73
2021/05/30 02:46:32;;;;;;;6.27;4.53;;;;;;;6.82;100.00;97025.75;5050875;28;20205;-72
2021/05/30 02:48:59;;;;;;;7.37;3.57;;;;;;;6.77;100.00;97030.56;5051673;28;20211;-72
2021/05/30 02:51:25;;;;;;;5.53;4.07;;;;;;;6.77;100.00;97029.72;5051748;28;20205;-72
2021/05/30 02:53:51;;;;;;;5.40;3.83;;;;;;;6.83;100.00;97027.38;5051288;28;20232;-72
2021/05/30 02:56:17;;;;;;;6.83;4.20;;;;;;;6.87;100.00;97030.56;5051431;28;20221;-72
2021/05/30 02:58:43;;;;;;;5.87;4.17;;;;;;;6.94;100.00;97034.31;5051626;28;20201;-72
2021/05/30 03:01:09;;;;;;;6.20;4.10;;;;;;;7.01;100.00;97030.16;5051454;28;20250;-72
2021/05/30 03:03:35;;;;;;;7.77;4.17;;;;;;;6.98;100.00;97026.03;5051450;28;20244;-73
2021/05/30 03:06:02;;;;;;;5.67;3.70;;;;;;;6.98;100.00;97023.41;5051193;28;20577;-72
2021/05/30 03:08:28;;;;;;;5.57;3.80;;;;;;;6.98;100.00;97025.22;5043404;28;20278;-72
2021/05/30 03:10:54;;;;;;;5.70;3.70;;;;;;;6.90;100.00;97031.13;5045039;28;20201;-72
2021/05/30 03:13:20;;;;;;;5.17;3.63;;;;;;;6.92;100.00;97031.81;5051373;28;20228;-72
2021/05/30 03:15:46;;;;;;;5.97;3.80;;;;;;;6.91;100.00;97026.69;5050739;28;20312;-72
2021/05/30 03:18:12;;;;;;;6.37;3.57;;;;;;;6.84;100.00;97036.91;5051177;28;20280;-72
2021/05/30 03:20:38;;;;;;;4.70;3.33;;;;;;;6.81;100.00;97028.47;5051152;28;20197;-72
2021/05/30 03:23:08;;;;;;;6.27;4.37;;;;;;;6.62;100.00;97031.06;5050652;28;20220;-73
2021/05/30 03:25:34;;;;;;;4.47;3.17;;;;;;;6.58;100.00;97027.06;5050541;28;20551;-73
2021/05/30 03:28:00;;;;;;;5.93;4.03;;;;;;;6.55;100.00;97035.16;5051227;28;20193;-73
2021/05/30 03:30:26;;;;;;;4.87;3.20;;;;;;;6.61;100.00;97029.41;5051021;28;20597;-73
2021/05/30 03:32:52;;;;;;;5.23;3.57;;;;;;;6.59;100.00;97031.31;5050875;28;20217;-73
2021/05/30 03:35:18;;;;;;;7.90;5.10;;;;;;;6.65;100.00;97035.22;5050530;28;20308;-73
2021/05/30 03:37:44;;;;;;;7.20;4.53;;;;;;;6.60;100.00;97043.47;5050600;28;20236;-73
2021/05/30 03:40:25;;;;;;;5.73;4.27;;;;;;;6.65;100.00;97047.31;5050739;28;20718;-73
2021/05/30 03:42:53;;;;;;;6.70;4.23;;;;;;;6.75;100.00;97047.38;5050613;28;20710;-73
2021/05/30 03:45:19;;;;;;;6.33;4.33;;;;;;;6.83;100.00;97044.91;5050312;28;20197;-73
2021/05/30 03:47:45;;;;;;;8.17;4.27;;;;;;;6.96;100.00;97051.56;5050609;28;20267;-73
2021/05/30 03:50:11;;;;;;;5.63;3.97;;;;;;;6.97;100.00;97053.19;5050536;28;20205;-73
2021/05/30 03:52:38;;;;;;;5.63;3.83;;;;;;;6.94;100.00;97050.03;5050643;28;20229;-73
2021/05/30 03:55:05;;;;;;;7.17;3.73;;;;;;;6.82;100.00;97049.31;5050161;28;20682;-73
2021/05/30 03:57:34;;;;;;;4.67;3.40;;;;;;;6.64;100.00;97050.09;5050643;28;20206;-73
2021/05/30 04:00:00;;;;;;;5.07;3.67;;;;;;;6.65;100.00;97051.75;5050532;28;20566;-73
2021/05/30 04:02:26;;;;;;;6.17;3.97;;;;;;;6.79;100.00;97048.75;5049934;28;20229;-73
2021/05/30 04:04:52;;;;;;;7.33;4.50;;;;;;;6.94;100.00;97052.66;5050503;28;20201;-73
2021/05/30 04:07:18;;;;;;;5.67;4.33;;;;;;;7.00;100.00;97049.47;5049954;28;20198;-73
2021/05/30 04:09:44;;;;;;;5.20;4.00;;;;;;;7.12;100.00;97051.84;5050250;28;20201;-73
2021/05/30 04:12:10;;;;;;;8.17;4.90;;;;;;;7.16;100.00;97044.53;5050186;28;20228;-73
2021/05/30 04:14:37;;;;;;;5.83;4.17;;;;;;;7.19;100.00;97045.06;5050122;28;20740;-73
2021/05/30 04:17:03;;;;;;;6.23;4.10;;;;;;;7.32;100.00;97043.03;5049700;28;20225;-73
2021/05/30 04:19:29;;;;;;;8.70;5.20;;;;;;;7.31;100.00;97041.38;5050045;28;20228;-73
2021/05/30 04:21:55;;;;;;;8.17;3.70;;;;;;;7.38;100.00;97040.69;5049775;28;20715;-73
2021/05/30 04:24:21;;;;;;;5.10;3.80;;;;;;;7.46;100.00;97040.81;5049867;28;20209;-73
2021/05/30 04:26:47;;;;;;;6.50;4.27;;;;;;;7.56;100.00;97036.41;5049620;28;20205;-73
2021/05/30 04:29:13;;;;;;;6.07;4.23;;;;;;;7.65;100.00;97035.56;5049874;28;20212;-73
2021/05/30 04:31:40;;;;;;;6.47;3.60;;;;;;;7.63;100.00;97032.25;5049627;28;20205;-73
2021/05/30 04:34:06;;;;;;;6.40;4.20;;;;;;;7.60;100.00;97036.94;5049821;28;20262;-73
2021/05/30 04:36:32;;;;;;;6.50;4.30;;;;;;;7.77;100.00;97038.88;5049167;28;20225;-73
2021/05/30 04:38:58;;;;;;;6.77;4.47;;;;;;;7.81;100.00;97040.22;5049286;28;20208;-73
2021/05/30 04:41:24;;;;;;;6.33;4.20;;;;;;;7.98;100.00;97042.94;5049772;28;21073;-73
2021/05/30 04:43:50;;;;;;;9.23;4.77;;;;;;;8.11;100.00;97043.47;5049543;28;20225;-73
2021/05/30 04:46:16;;;;;;;9.37;5.13;;;;;;;8.22;100.00;97045.94;5049143;28;20197;-73
2021/05/30 04:48:43;;;;;;;9.40;4.80;;;;;;;8.27;100.00;97038.47;5049668;28;20619;-73
2021/05/30 04:51:13;;;;;;;9.33;4.83;;;;;;;8.39;100.00;97032.06;5049509;28;20193;-73
2021/05/30 04:53:40;;;;;;;6.73;4.53;;;;;;;8.51;100.00;97037.00;5049320;28;20225;-73
2021/05/30 04:56:08;;;;;;;8.83;5.07;;;;;;;8.62;100.00;97039.44;5048921;28;20216;-73
2021/05/30 04:58:35;;;;;;;7.10;4.90;;;;;;;8.74;100.00;97044.34;5049302;28;20201;-73
2021/05/30 05:01:01;;;;;;;12.47;5.77;;;;;;;8.87;100.00;97041.38;5049157;28;20661;-73
2021/05/30 05:03:27;;;;;;;8.83;5.53;;;;;;;8.99;100.00;97035.75;5049353;28;20254;-73
2021/05/30 05:05:54;;;;;;;10.60;6.00;;;;;;;9.15;100.00;97038.56;5048999;28;20620;-72
2021/05/30 05:08:21;;;;;;;12.07;6.37;;;;;;;9.26;100.00;97040.97;5048982;28;20255;-72
2021/05/30 05:10:47;;;;;;;9.47;6.43;;;;;;;9.29;100.00;97038.03;5049062;28;20205;-72
2021/05/30 05:13:14;;;;;;;7.90;5.50;;;;;;;9.38;100.00;97039.75;5049046;28;20224;-72
2021/05/30 05:15:40;;;;;;;11.17;6.57;;;;;;;9.42;100.00;97035.84;5048318;28;21132;-72
2021/05/30 05:18:14;;;;;;;11.97;6.40;;;;;;;9.51;100.00;97046.31;5049186;28;20202;-73
2021/05/30 05:20:40;;;;;;;9.53;6.17;;;;;;;9.56;100.00;97037.97;5048713;28;20205;-73
2021/05/30 05:23:08;;;;;;;10.23;6.43;;;;;;;9.68;100.00;97031.50;5048908;28;20217;-72
2021/05/30 05:25:35;;;;;;;9.97;6.57;;;;;;;9.82;100.00;97039.66;5048519;28;20205;-73
2021/05/30 05:28:03;;;;;;;11.27;6.67;;;;;;;9.93;100.00;97032.34;5048705;28;20207;-72
2021/05/30 05:30:29;;;;;;;16.50;6.77;;;;;;;10.05;100.00;97030.31;5048807;28;20205;-73
2021/05/30 05:32:55;;;;;;;10.33;6.80;;;;;;;10.09;100.00;97037.75;5048716;28;20290;-73
2021/05/30 05:35:21;;;;;;;12.30;6.93;;;;;;;10.19;100.00;97029.75;5048229;28;20211;-73
2021/05/30 05:37:47;;;;;;;11.33;7.10;;;;;;;10.26;100.00;97031.63;5048625;28;20206;-73
2021/05/30 05:40:15;;;;;;;10.87;6.77;;;;;;;10.30;100.00;97029.47;5048686;28;20594;-72
2021/05/30 05:42:41;;;;;;;12.50;6.80;;;;;;;10.34;100.00;97031.66;5048310;28;20235;-72
2021/05/30 05:45:08;;;;;;;14.17;7.33;;;;;;;10.39;100.00;97027.56;5048539;28;20197;-73
2021/05/30 05:47:34;;;;;;;13.20;7.63;;;;;;;10.52;100.00;97027.13;5048389;28;20205;-73
2021/05/30 05:50:01;;;;;;;8.27;5.53;;;;;;;10.98;100.00;97033.59;5047577;28;20203;-74
2021/05/30 05:52:27;;;;;;;14.80;7.40;;;;;;;11.27;100.00;97033.16;5048493;28;20217;-74
2021/05/30 05:54:53;;;;;;;12.63;7.43;;;;;;;11.30;100.00;97025.75;5048243;28;20223;-73
2021/05/30 05:57:20;;;;;;;13.67;7.43;;;;;;;11.39;100.00;97024.78;5048149;28;20223;-73
2021/05/30 05:59:46;;;;;;;14.00;7.67;;;;;;;11.29;100.00;97034.66;5048523;28;20197;-73
2021/05/30 06:02:13;;;;;;;14.30;7.50;;;;;;;11.15;100.00;97024.75;5048470;28;20217;-73
2021/05/30 06:04:42;;;;;;;10.83;7.33;;;;;;;11.20;100.00;97033.00;5047060;28;20207;-73
2021/05/30 06:07:08;;;;;;;12.17;7.07;;;;;;;11.25;100.00;97035.97;5047971;28;20583;-73
2021/05/30 06:09:34;;;;;;;12.70;7.77;;;;;;;11.27;100.00;97026.06;5048129;28;20687;-73
2021/05/30 06:12:00;;;;;;;13.93;7.30;;;;;;;11.34;100.00;97028.88;5048344;28;20225;-73
2021/05/30 06:14:27;;;;;;;11.27;7.30;;;;;;;11.34;100.00;97037.66;5048442;28;20213;-73
2021/05/30 06:16:53;;;;;;;13.13;7.40;;;;;;;11.46;100.00;97027.59;5047739;28;20710;-73
2021/05/30 06:19:19;;;;;;;13.27;7.70;;;;;;;11.46;100.00;97033.69;5048259;28;20221;-73
2021/05/30 06:21:45;;;;;;;12.87;7.70;;;;;;;11.68;100.00;97028.66;5042469;28;20266;-73
2021/05/30 06:24:11;;;;;;;11.97;7.73;;;;;;;11.73;99.51;97026.31;5039582;28;20201;-72
2021/05/30 06:26:38;;;;;;;12.33;7.60;;;;;;;11.81;98.74;97033.41;5045828;28;20204;-73
2021/05/30 06:29:04;;;;;;;13.87;6.80;;;;;;;11.86;97.89;97023.19;5048008;28;20197;-73
2021/05/30 06:31:31;;;;;;;14.37;7.50;;;;;;;11.96;98.08;97021.19;5047858;28;20288;-73
2021/05/30 06:33:58;;;;;;;11.00;6.73;;;;;;;12.09;95.34;97030.25;5047975;28;20210;-72
2021/05/30 06:36:24;;;;;;;12.70;7.55;;;;;;;12.26;100.00;97035.34;5047433;28;20224;-72
2021/05/30 06:38:50;;;;;;;11.27;7.33;;;;;;;12.39;96.69;97025.06;5047701;28;20220;-69
2021/05/30 06:41:17;;;;;;;11.50;7.63;;;;;;;12.55;98.30;97022.41;5047907;28;20205;-69
2021/05/30 06:43:43;;;;;;;12.47;6.90;;;;;;;12.54;94.46;97025.22;5047815;28;20231;-68
2021/05/30 06:46:09;;;;;;;14.30;7.60;;;;;;;12.58;96.33;97029.97;5047778;28;20629;-68
2021/05/30 06:48:36;;;;;;;11.07;7.13;;;;;;;12.74;96.73;97032.59;5047776;28;20201;-68
2021/05/30 06:51:15;;;;;;;11.93;7.30;;;;;;;12.86;93.80;97028.59;5045840;28;20675;-68
2021/05/30 06:53:45;;;;;;;14.60;7.53;;;;;;;12.65;94.13;97033.59;5039502;28;20726;-68
2021/05/30 06:56:11;;;;;;;13.73;7.80;;;;;;;12.76;91.01;97033.22;5042885;28;21159;-68
2021/05/30 06:58:37;;;;;;;10.13;6.88;;;;;;;12.78;93.17;97023.31;5047827;28;20201;-68
2021/05/30 07:01:03;;;;;;;12.13;8.23;;;;;;;12.97;95.54;97031.69;5049286;28;20231;-68
2021/05/30 07:03:29;;;;;;;13.40;7.40;;;;;;;13.16;97.88;97031.28;5051235;28;20225;-69
2021/05/30 07:05:57;;;;;;;18.43;7.70;;;;;;;13.14;90.66;97032.44;5050861;28;20199;-69
2021/05/30 07:08:23;;;;;;;10.38;6.93;;;;;;;13.02;90.99;97037.28;5051290;28;20671;-69
2021/05/30 07:10:49;;;;;;;10.35;7.00;;;;;;;13.13;91.59;97031.59;5051300;28;20240;-69
2021/05/30 07:13:15;;;;;;;12.25;7.60;;;;;;;13.03;88.69;97030.16;5051347;28;20714;-68
2021/05/30 07:15:41;;;;;;;10.65;7.07;;;;;;;13.07;91.52;97034.13;5050654;28;20221;-69
2021/05/30 07:18:07;;;;;;;12.82;7.28;;;;;;;13.22;87.25;97045.63;5051246;28;20242;-68
2021/05/30 07:20:33;;;;;;;12.27;7.30;;;;;;;13.25;88.79;97047.91;5051051;28;20263;-68
2021/05/30 07:23:00;;;;;;;11.27;7.30;;;;;;;13.27;87.40;97052.03;5051043;28;20224;-72
2021/05/30 07:25:26;;;;;;;12.50;7.80;;;;;;;13.38;91.44;97047.16;5051036;28;20201;-72
2021/05/30 07:27:52;;;;;;;12.43;7.30;;;;;;;13.45;91.25;97052.59;5050914;28;20205;-72
2021/05/30 07:30:20;;;;;;;12.90;7.15;;;;;;;13.59;86.24;97055.34;5050794;28;20273;-73
2021/05/30 07:32:46;;;;;;;11.93;7.53;;;;;;;13.69;92.26;97055.91;5050778;28;20224;-72
2021/05/30 07:35:13;;;;;;;12.90;7.60;;;;;;;13.93;91.85;97050.44;5049841;28;20266;-72
2021/05/30 07:37:39;;;;;;;13.52;7.82;;;;;;;13.84;87.38;97050.69;5048928;28;20252;-72
2021/05/30 07:40:08;;;;;;;13.38;7.53;;;;;;;13.80;88.53;97055.50;5049002;28;20667;-72
2021/05/30 07:42:34;;;;;;;13.77;7.80;;;;;;;13.91;87.06;97048.97;5050392;28;20235;-72
2021/05/30 07:45:00;;;;;;;13.48;7.68;;;;;;;14.00;87.71;97043.41;5050096;28;20228;-72
2021/05/30 07:47:26;;;;;;;12.27;7.13;;;;;;;14.20;85.11;97049.91;5050394;28;20266;-72
2021/05/30 07:49:52;;;;;;;12.93;8.20;;;;;;;14.31;86.36;97045.00;5050542;28;20201;-72
2021/05/30 07:52:18;;;;;;;13.75;7.80;;;;;;;14.26;86.75;97047.34;5050733;28;20213;-72
2021/05/30 07:54:44;;;;;;;15.93;7.70;;;;;;;14.47;85.27;97039.50;5050090;28;20224;-72
2021/05/30 07:57:11;;;;;;;12.82;7.35;;;;;;;14.63;84.62;97037.50;5050113;28;20233;-73
2021/05/30 07:59:37;;;;;;;13.30;7.32;;;;;;;14.58;80.47;97040.91;5050386;28;20339;-72
2021/05/30 08:02:03;;;;;;;11.15;7.20;;;;;;;14.34;79.81;97041.16;5049971;28;20225;-73
2021/05/30 08:04:29;;;;;;;13.57;7.75;;;;;;;14.57;84.19;97034.75;5050383;28;20201;-72
2021/05/30 08:06:55;;;;;;;13.85;7.63;;;;;;;14.54;79.62;97042.28;5050306;28;20209;-73
2021/05/30 08:09:22;;;;;;;14.15;7.93;;;;;;;14.71;84.40;97040.09;5050228;28;20201;-72
2021/05/30 08:11:48;;;;;;;12.55;7.15;;;;;;;14.90;81.36;97038.72;5049321;28;20216;-73
2021/05/30 08:14:15;;;;;;;10.93;6.47;;;;;;;15.00;77.31;97044.56;5049794;28;20197;-74
2021/05/30 08:16:41;;;;;;;12.15;6.70;;;;;;;15.25;80.49;97038.81;5049018;28;20228;-73
2021/05/30 08:19:08;;;;;;;14.13;6.20;;;;;;;15.43;78.37;97036.56;5050145;28;20224;-73
2021/05/30 08:21:34;;;;;;;10.82;6.70;;;;;;;15.36;72.27;97038.28;5049857;28;20724;-73
2021/05/30 08:24:00;;;;;;;10.98;6.45;;;;;;;15.40;77.38;97031.59;5049882;28;20211;-73
2021/05/30 08:26:26;;;;;;;10.10;6.10;;;;;;;15.53;78.11;97035.22;5049574;28;20193;-73
2021/05/30 08:28:52;;;;;;;10.10;6.03;;;;;;;15.46;77.41;97033.50;5049635;28;20209;-74
2021/05/30 08:31:19;;;;;;;10.13;6.10;;;;;;;15.55;73.72;97032.38;5049526;28;20197;-73
2021/05/30 08:33:46;;;;;;;12.25;5.60;;;;;;;15.33;72.78;97030.72;5049710;28;20228;-74
2021/05/30 08:36:12;;;;;;;9.93;5.82;;;;;;;15.38;71.03;97029.13;5049421;28;20225;-73
2021/05/30 08:38:38;;;;;;;8.95;4.88;;;;;;;15.32;67.75;97029.06;5049580;28;20211;-73
2021/05/30 08:41:04;;;;;;;7.30;4.40;;;;;;;15.69;70.64;97028.84;5049443;28;20201;-73
2021/05/30 08:43:30;;;;;;;9.27;5.03;;;;;;;15.87;67.59;97030.03;5049803;28;20232;-73
2021/05/30 08:45:56;;;;;;;8.35;4.55;;;;;;;16.19;68.64;97026.84;5048382;28;20197;-73
2021/05/30 08:48:23;;;;;;;7.88;4.55;;;;;;;16.20;66.42;97031.97;5049293;28;20683;-73
2021/05/30 08:51:02;;;;;;;10.20;5.10;;;;;;;15.99;67.75;97024.03;5049351;28;20211;-73
2021/05/30 08:53:29;;;;;;;8.98;5.45;;;;;;;15.86;73.88;97031.91;5049233;28;20517;-73
2021/05/30 08:55:56;;;;;;;8.02;4.78;;;;;;;15.94;67.45;97020.31;5048819;28;20229;-73
2021/05/30 08:58:22;;;;;;;7.22;4.28;;;;;;;16.03;62.73;97022.63;5049108;28;20205;-73
2021/05/30 09:01:07;;;;;;;7.45;4.18;;;;;;;15.92;63.23;97015.19;5049118;28;20224;-73
2021/05/30 09:03:33;;;;;;;9.23;4.78;;;;;;;16.32;68.28;97014.53;5049188;28;20225;-73
2021/05/30 09:06:14;;;;;;;12.88;4.70;;;;;;;16.49;65.95;97010.56;5048610;28;20888;-74
2021/05/30 09:08:41;;;;;;;5.45;3.67;;;;;;;16.90;67.24;97024.72;5048938;28;20197;-73
2021/05/30 09:11:08;;;;;;;5.32;3.25;;;;;;;16.71;56.81;97015.63;5049128;28;20592;-73
2021/05/30 09:13:53;;;;;;;5.85;3.25;;;;;;;16.69;59.27;97022.97;5048943;28;20264;-73
2021/05/30 09:16:21;;;;;;;7.25;3.65;;;;;;;17.02;58.75;97020.47;5048376;28;20586;-73
2021/05/30 09:18:48;;;;;;;6.40;3.60;;;;;;;16.91;58.74;97011.22;5048420;28;20208;-73
2021/05/30 09:21:14;;;;;;;8.25;3.60;;;;;;;16.58;55.14;97014.72;5048751;28;20675;-73
2021/05/30 09:23:41;;;;;;;5.43;3.60;;;;;;;16.17;60.35;97015.59;5048565;28;20371;-73
2021/05/30 09:26:13;;;;;;;6.30;3.88;;;;;;;16.05;60.91;97017.97;5048251;28;20199;-73
2021/05/30 09:28:41;;;;;;;4.38;3.08;;;;;;;16.29;56.14;97017.56;5049159;28;20205;-73
2021/05/30 09:31:08;;;;;;;6.15;3.38;;;;;;;16.81;59.48;97012.59;5048104;28;20247;-73
2021/05/30 09:33:34;;;;;;;5.15;2.90;;;;;;;16.71;58.33;97014.78;5048525;28;20229;-73
2021/05/30 09:36:03;;;;;;;6.82;3.80;;;;;;;16.82;60.23;97017.72;5047878;28;20213;-73
2021/05/30 09:38:32;;;;;;;5.35;3.60;;;;;;;16.49;56.31;97011.34;5048763;28;20201;-73
2021/05/30 09:41:01;;;;;;;6.43;3.30;;;;;;;16.55;57.29;97009.78;5048449;28;20608;-73
2021/05/30 09:43:31;;;;;;;7.38;3.50;;;;;;;16.65;60.28;97011.06;5048510;28;20225;-73
2021/05/30 09:46:13;;;;;;;5.65;3.13;;;;;;;16.61;56.16;97006.31;5047615;28;20205;-73
2021/05/30 09:48:42;;;;;;;6.50;3.40;;;;;;;17.09;62.00;97004.34;5046261;28;20634;-73
2021/05/30 09:51:29;;;;;;;4.95;3.20;;;;;;;17.38;57.68;97001.41;5048242;28;20526;-73
2021/05/30 09:53:59;;;;;;;4.80;2.95;;;;;;;17.66;59.63;97010.09;5048056;28;20229;-73
2021/05/30 09:56:39;;;;;;;4.15;2.95;;;;;;;17.61;51.53;97009.88;5047988;28;20272;-73
2021/05/30 09:59:07;;;;;;;4.38;2.67;;;;;;;17.80;50.22;96998.44;5048104;28;20630;-73
2021/05/30 10:01:55;;;;;;;4.55;3.10;;;;;;;17.76;55.09;97002.53;5048396;28;20205;-73
2021/05/30 10:04:23;;;;;;;5.43;3.33;;;;;;;17.69;58.68;97001.69;5048068;28;20620;-73
2021/05/30 10:06:51;;;;;;;6.50;3.50;;;;;;;18.05;55.37;96996.78;5047858;28;20205;-73
2021/05/30 10:09:17;;;;;;;7.97;2.95;;;;;;;18.06;49.13;97009.13;5048014;28;20331;-73
2021/05/30 10:11:43;;;;;;;6.93;3.08;;;;;;;18.24;49.98;96996.03;5048537;28;20208;-72
2021/05/30 10:14:11;;;;;;;6.93;3.30;;;;;;;17.87;50.62;96997.41;5047928;28;20746;-73
2021/05/30 10:16:38;;;;;;;6.00;3.33;;;;;;;18.02;51.87;97002.56;5048002;28;20588;-74
2021/05/30 10:19:08;;;;;;;6.68;3.67;;;;;;;17.85;56.96;97007.44;5047996;28;20203;-73
2021/05/30 10:21:39;;;;;;;7.35;3.42;;;;;;;17.85;53.70;97007.44;5048541;28;20221;-73
2021/05/30 10:24:10;;;;;;;4.75;3.17;;;;;;;18.06;53.75;97003.78;5048182;28;20262;-73
2021/05/30 10:26:36;;;;;;;7.13;3.72;;;;;;;17.91;55.09;96995.19;5048215;28;20193;-73
2021/05/30 10:29:10;;;;;;;7.47;3.58;;;;;;;18.24;50.48;97001.34;5047922;28;20220;-73
2021/05/30 10:31:38;;;;;;;6.25;3.60;;;;;;;18.19;52.11;96993.97;5047998;28;20573;-74
2021/05/30 10:34:18;;;;;;;6.78;3.70;;;;;;;17.89;52.93;96994.53;5048253;28;20205;-74
2021/05/30 10:37:24;;;;;;;5.65;3.70;;;;;;;17.58;52.21;96994.28;5050461;28;20232;-74
2021/05/30 10:39:52;;;;;;;5.63;3.80;;;;;;;17.25;55.78;96989.91;5051571;28;20227;-74
2021/05/30 10:42:22;;;;;;;7.35;3.67;;;;;;;16.70;57.31;96992.69;5051693;28;20253;-74
2021/05/30 10:44:53;;;;;;;7.15;3.65;;;;;;;16.40;57.21;96998.41;5051825;28;20259;-73
2021/05/30 10:47:20;;;;;;;4.85;3.40;;;;;;;16.07;54.27;96993.84;5051539;28;20208;-73
2021/05/30 10:50:06;;;;;;;6.25;3.85;;;;;;;16.18;55.14;96999.44;5051716;28;20555;-73
2021/05/30 10:52:33;;;;;;;6.95;4.20;;;;;;;16.01;56.68;96995.44;5051523;28;20225;-73
2021/05/30 10:55:09;;;;;;;6.82;4.05;;;;;;;15.92;57.04;96996.59;5051298;28;20209;-73
2021/05/30 10:57:39;;;;;;;7.15;4.25;;;;;;;16.47;60.56;97001.97;5051356;28;20617;-73
2021/05/30 11:00:36;;;;;;;6.93;3.60;;;;;;;17.30;55.83;96985.59;5051662;28;20197;-74
2021/05/30 11:03:11;;;;;;;5.00;3.78;;;;;;;18.12;55.80;96982.44;5050915;28;20704;-74
2021/05/30 11:05:42;;;;;;;7.22;2.90;;;;;;;18.57;48.08;96982.44;5050993;28;20201;-74
2021/05/30 11:08:08;;;;;;;7.05;3.25;;;;;;;19.03;51.42;96973.28;5051159;28;20205;-74
2021/05/30 11:10:35;;;;;;;5.82;2.90;;;;;;;18.52;44.25;96979.56;5051184;28;20205;-73
2021/05/30 11:13:02;;;;;;;6.25;3.08;;;;;;;18.11;50.83;96993.31;5050908;28;20243;-74
2021/05/30 11:15:34;;;;;;;5.47;3.03;;;;;;;17.85;48.34;96987.97;5050799;28;20217;-74
2021/05/30 11:18:01;;;;;;;4.82;3.00;;;;;;;17.38;52.29;96990.75;5050798;28;20279;-74
2021/05/30 11:20:37;;;;;;;4.75;3.50;;;;;;;17.20;50.81;96990.44;5051455;28;20582;-74
2021/05/30 11:23:05;;;;;;;8.32;2.97;;;;;;;16.84;49.55;96996.22;5051018;28;20228;-74
2021/05/30 11:25:33;;;;;;;6.32;3.25;;;;;;;16.76;50.26;96991.06;5050687;28;20205;-73
2021/05/30 11:28:02;;;;;;;4.90;2.80;;;;;;;16.95;51.25;96991.16;5050798;28;20247;-74
2021/05/30 11:31:00;;;;;;;2.97;2.55;;;;;;;17.67;53.84;96990.41;5050739;28;20299;-74
2021/05/30 11:33:43;;;;;;;3.53;2.45;;;;;;;18.10;51.03;96981.00;5016399;28;20311;-74
2021/05/30 11:36:18;;;;;;;6.80;2.70;;;;;;;18.94;48.03;96974.53;5048492;28;20636;-74